sensor_id;sensor_type;location;lat;lon;timestamp;P1;durP1;ratioP1;P2;durP2;ratioP2
42134;SDS011;28312;43.460;11.810;2022-07-24T00:00:26;2.05;;;1.10;;
42134;SDS011;28312;43.460;11.810;2022-07-24T00:04:30;1.80;;;1.25;;
42134;SDS011;28312;43.460;11.810;2022-07-24T00:08:37;2.00;;;1.42;;
42134;SDS011;28312;43.460;11.810;2022-07-24T00:12:43;5.82;;;2.10;;
42134;SDS011;28312;43.460;11.810;2022-07-24T00:16:47;2.50;;;1.67;;
42134;SDS011;28312;43.460;11.810;2022-07-24T00:20:52;2.60;;;1.83;;
42134;SDS011;28312;43.460;11.810;2022-07-24T00:24:56;2.38;;;1.45;;
42134;SDS011;28312;43.460;11.810;2022-07-24T00:29:00;3.15;;;1.60;;
42134;SDS011;28312;43.460;11.810;2022-07-24T00:33:04;3.05;;;1.73;;
42134;SDS011;28312;43.460;11.810;2022-07-24T00:37:08;2.60;;;1.30;;
42134;SDS011;28312;43.460;11.810;2022-07-24T00:41:11;4.15;;;1.85;;
42134;SDS011;28312;43.460;11.810;2022-07-24T00:45:15;4.28;;;3.13;;
42134;SDS011;28312;43.460;11.810;2022-07-24T00:49:27;3.38;;;1.77;;
42134;SDS011;28312;43.460;11.810;2022-07-24T00:53:30;3.55;;;2.17;;
42134;SDS011;28312;43.460;11.810;2022-07-24T00:57:35;7.47;;;2.50;;
42134;SDS011;28312;43.460;11.810;2022-07-24T01:01:38;2.58;;;1.85;;
42134;SDS011;28312;43.460;11.810;2022-07-24T01:05:43;4.22;;;1.70;;
42134;SDS011;28312;43.460;11.810;2022-07-24T01:09:47;2.67;;;1.75;;
42134;SDS011;28312;43.460;11.810;2022-07-24T01:13:52;2.75;;;1.67;;
42134;SDS011;28312;43.460;11.810;2022-07-24T01:17:55;3.25;;;2.08;;
42134;SDS011;28312;43.460;11.810;2022-07-24T01:21:59;4.80;;;2.83;;
42134;SDS011;28312;43.460;11.810;2022-07-24T01:26:06;2.83;;;2.08;;
42134;SDS011;28312;43.460;11.810;2022-07-24T01:30:11;3.63;;;2.47;;
42134;SDS011;28312;43.460;11.810;2022-07-24T01:34:15;3.45;;;2.20;;
42134;SDS011;28312;43.460;11.810;2022-07-24T01:38:19;3.58;;;3.03;;
42134;SDS011;28312;43.460;11.810;2022-07-24T01:42:23;3.42;;;2.58;;
42134;SDS011;28312;43.460;11.810;2022-07-24T01:46:28;2.50;;;1.63;;
42134;SDS011;28312;43.460;11.810;2022-07-24T01:50:32;3.47;;;2.40;;
42134;SDS011;28312;43.460;11.810;2022-07-24T01:54:37;4.72;;;2.92;;
42134;SDS011;28312;43.460;11.810;2022-07-24T01:58:40;6.65;;;3.45;;
42134;SDS011;28312;43.460;11.810;2022-07-24T02:02:45;5.00;;;2.47;;
42134;SDS011;28312;43.460;11.810;2022-07-24T02:06:49;3.08;;;2.17;;
42134;SDS011;28312;43.460;11.810;2022-07-24T02:10:53;3.42;;;2.40;;
42134;SDS011;28312;43.460;11.810;2022-07-24T02:14:57;3.72;;;2.60;;
42134;SDS011;28312;43.460;11.810;2022-07-24T02:19:00;4.20;;;2.92;;
42134;SDS011;28312;43.460;11.810;2022-07-24T02:23:05;5.05;;;2.53;;
42134;SDS011;28312;43.460;11.810;2022-07-24T02:27:09;4.13;;;3.20;;
42134;SDS011;28312;43.460;11.810;2022-07-24T02:31:12;4.60;;;2.47;;
42134;SDS011;28312;43.460;11.810;2022-07-24T02:35:16;2.42;;;1.88;;
42134;SDS011;28312;43.460;11.810;2022-07-24T02:39:20;3.17;;;2.42;;
42134;SDS011;28312;43.460;11.810;2022-07-24T02:43:24;4.78;;;2.30;;
42134;SDS011;28312;43.460;11.810;2022-07-24T02:47:29;3.72;;;2.00;;
42134;SDS011;28312;43.460;11.810;2022-07-24T02:51:33;4.40;;;2.55;;
42134;SDS011;28312;43.460;11.810;2022-07-24T02:55:37;4.13;;;2.72;;
42134;SDS011;28312;43.460;11.810;2022-07-24T02:59:41;3.08;;;2.28;;
42134;SDS011;28312;43.460;11.810;2022-07-24T03:03:45;2.90;;;2.00;;
42134;SDS011;28312;43.460;11.810;2022-07-24T03:07:49;2.88;;;1.63;;
42134;SDS011;28312;43.460;11.810;2022-07-24T03:11:52;2.78;;;1.85;;
42134;SDS011;28312;43.460;11.810;2022-07-24T03:15:56;2.85;;;1.70;;
42134;SDS011;28312;43.460;11.810;2022-07-24T03:20:03;1.60;;;1.02;;
42134;SDS011;28312;43.460;11.810;2022-07-24T03:24:07;2.03;;;1.30;;
42134;SDS011;28312;43.460;11.810;2022-07-24T03:28:10;2.53;;;1.52;;
42134;SDS011;28312;43.460;11.810;2022-07-24T03:32:14;2.67;;;1.52;;
42134;SDS011;28312;43.460;11.810;2022-07-24T03:36:19;2.13;;;1.42;;
42134;SDS011;28312;43.460;11.810;2022-07-24T03:40:22;1.95;;;1.30;;
42134;SDS011;28312;43.460;11.810;2022-07-24T03:44:26;1.90;;;1.30;;
42134;SDS011;28312;43.460;11.810;2022-07-24T03:48:30;2.20;;;1.38;;
42134;SDS011;28312;43.460;11.810;2022-07-24T03:52:34;2.03;;;1.23;;
42134;SDS011;28312;43.460;11.810;2022-07-24T03:56:39;2.13;;;1.23;;
42134;SDS011;28312;43.460;11.810;2022-07-24T04:00:42;2.00;;;1.38;;
42134;SDS011;28312;43.460;11.810;2022-07-24T04:04:47;2.33;;;1.30;;
42134;SDS011;28312;43.460;11.810;2022-07-24T04:08:51;2.50;;;1.00;;
42134;SDS011;28312;43.460;11.810;2022-07-24T04:12:55;2.38;;;1.13;;
42134;SDS011;28312;43.460;11.810;2022-07-24T04:17:00;2.30;;;1.23;;
42134;SDS011;28312;43.460;11.810;2022-07-24T04:21:04;2.35;;;1.05;;
42134;SDS011;28312;43.460;11.810;2022-07-24T04:25:08;2.10;;;1.40;;
42134;SDS011;28312;43.460;11.810;2022-07-24T04:29:12;1.63;;;0.93;;
42134;SDS011;28312;43.460;11.810;2022-07-24T04:33:24;1.40;;;0.80;;
42134;SDS011;28312;43.460;11.810;2022-07-24T04:37:27;1.73;;;0.95;;
42134;SDS011;28312;43.460;11.810;2022-07-24T04:41:31;1.83;;;1.17;;
42134;SDS011;28312;43.460;11.810;2022-07-24T04:45:35;1.55;;;0.95;;
42134;SDS011;28312;43.460;11.810;2022-07-24T04:49:39;1.42;;;0.93;;
42134;SDS011;28312;43.460;11.810;2022-07-24T04:53:43;1.75;;;1.10;;
42134;SDS011;28312;43.460;11.810;2022-07-24T04:57:46;3.00;;;1.88;;
42134;SDS011;28312;43.460;11.810;2022-07-24T05:01:50;4.13;;;1.77;;
42134;SDS011;28312;43.460;11.810;2022-07-24T05:05:54;2.92;;;1.58;;
42134;SDS011;28312;43.460;11.810;2022-07-24T05:10:01;3.70;;;1.58;;
42134;SDS011;28312;43.460;11.810;2022-07-24T05:14:08;2.35;;;1.30;;
42134;SDS011;28312;43.460;11.810;2022-07-24T05:18:13;2.70;;;1.60;;
42134;SDS011;28312;43.460;11.810;2022-07-24T05:22:16;2.13;;;1.33;;
42134;SDS011;28312;43.460;11.810;2022-07-24T05:26:20;2.45;;;1.70;;
42134;SDS011;28312;43.460;11.810;2022-07-24T05:30:25;2.22;;;1.40;;
42134;SDS011;28312;43.460;11.810;2022-07-24T05:34:29;2.70;;;1.83;;
42134;SDS011;28312;43.460;11.810;2022-07-24T05:38:32;2.30;;;1.52;;
42134;SDS011;28312;43.460;11.810;2022-07-24T05:42:37;5.10;;;1.70;;
42134;SDS011;28312;43.460;11.810;2022-07-24T05:46:40;2.63;;;2.15;;
42134;SDS011;28312;43.460;11.810;2022-07-24T05:50:48;2.85;;;1.88;;
42134;SDS011;28312;43.460;11.810;2022-07-24T05:54:52;6.47;;;1.88;;
42134;SDS011;28312;43.460;11.810;2022-07-24T05:58:56;4.85;;;1.48;;
42134;SDS011;28312;43.460;11.810;2022-07-24T06:02:59;3.40;;;1.65;;
42134;SDS011;28312;43.460;11.810;2022-07-24T06:07:03;2.53;;;1.63;;
42134;SDS011;28312;43.460;11.810;2022-07-24T06:11:06;3.03;;;1.80;;
42134;SDS011;28312;43.460;11.810;2022-07-24T06:15:12;2.00;;;1.23;;
42134;SDS011;28312;43.460;11.810;2022-07-24T06:19:17;4.47;;;1.35;;
42134;SDS011;28312;43.460;11.810;2022-07-24T06:23:20;1.88;;;1.20;;
42134;SDS011;28312;43.460;11.810;2022-07-24T06:27:24;1.80;;;1.10;;
42134;SDS011;28312;43.460;11.810;2022-07-24T06:31:28;3.30;;;1.05;;
42134;SDS011;28312;43.460;11.810;2022-07-24T06:35:32;1.90;;;1.30;;
42134;SDS011;28312;43.460;11.810;2022-07-24T06:39:37;1.63;;;1.05;;
42134;SDS011;28312;43.460;11.810;2022-07-24T06:43:41;4.25;;;2.22;;
42134;SDS011;28312;43.460;11.810;2022-07-24T06:47:45;3.00;;;1.75;;
42134;SDS011;28312;43.460;11.810;2022-07-24T06:51:49;4.35;;;2.97;;
42134;SDS011;28312;43.460;11.810;2022-07-24T06:55:53;2.40;;;1.75;;
42134;SDS011;28312;43.460;11.810;2022-07-24T06:59:58;5.33;;;2.37;;
42134;SDS011;28312;43.460;11.810;2022-07-24T07:04:01;2.75;;;1.80;;
42134;SDS011;28312;43.460;11.810;2022-07-24T07:08:05;3.42;;;1.70;;
42134;SDS011;28312;43.460;11.810;2022-07-24T07:12:09;2.42;;;1.45;;
42134;SDS011;28312;43.460;11.810;2022-07-24T07:16:13;2.30;;;1.40;;
42134;SDS011;28312;43.460;11.810;2022-07-24T07:20:18;2.60;;;1.92;;
42134;SDS011;28312;43.460;11.810;2022-07-24T07:24:22;3.30;;;1.65;;
42134;SDS011;28312;43.460;11.810;2022-07-24T07:28:25;2.90;;;1.80;;
42134;SDS011;28312;43.460;11.810;2022-07-24T07:32:29;7.82;;;2.63;;
42134;SDS011;28312;43.460;11.810;2022-07-24T07:36:32;2.50;;;1.70;;
42134;SDS011;28312;43.460;11.810;2022-07-24T07:40:37;3.03;;;2.25;;
42134;SDS011;28312;43.460;11.810;2022-07-24T07:44:41;3.65;;;1.70;;
42134;SDS011;28312;43.460;11.810;2022-07-24T07:48:44;2.08;;;1.63;;
42134;SDS011;28312;43.460;11.810;2022-07-24T07:52:48;2.35;;;1.70;;
42134;SDS011;28312;43.460;11.810;2022-07-24T07:56:53;2.90;;;2.13;;
42134;SDS011;28312;43.460;11.810;2022-07-24T08:00:57;3.10;;;1.90;;
42134;SDS011;28312;43.460;11.810;2022-07-24T08:05:01;3.25;;;2.22;;
42134;SDS011;28312;43.460;11.810;2022-07-24T08:09:04;2.65;;;1.95;;
42134;SDS011;28312;43.460;11.810;2022-07-24T08:13:09;4.78;;;2.45;;
42134;SDS011;28312;43.460;11.810;2022-07-24T08:21:19;4.80;;;2.22;;
42134;SDS011;28312;43.460;11.810;2022-07-24T08:25:24;2.53;;;2.15;;
42134;SDS011;28312;43.460;11.810;2022-07-24T08:29:28;4.07;;;2.20;;
42134;SDS011;28312;43.460;11.810;2022-07-24T08:33:32;3.25;;;2.47;;
42134;SDS011;28312;43.460;11.810;2022-07-24T08:37:36;3.50;;;2.55;;
42134;SDS011;28312;43.460;11.810;2022-07-24T08:41:40;7.33;;;2.37;;
42134;SDS011;28312;43.460;11.810;2022-07-24T08:45:45;3.20;;;2.20;;
42134;SDS011;28312;43.460;11.810;2022-07-24T08:49:53;2.83;;;1.75;;
42134;SDS011;28312;43.460;11.810;2022-07-24T08:53:58;4.72;;;2.08;;
42134;SDS011;28312;43.460;11.810;2022-07-24T08:58:02;3.00;;;2.35;;
42134;SDS011;28312;43.460;11.810;2022-07-24T09:02:08;2.72;;;1.52;;
42134;SDS011;28312;43.460;11.810;2022-07-24T09:06:12;2.42;;;1.63;;
42134;SDS011;28312;43.460;11.810;2022-07-24T09:10:17;2.42;;;1.80;;
42134;SDS011;28312;43.460;11.810;2022-07-24T09:14:24;2.75;;;1.75;;
42134;SDS011;28312;43.460;11.810;2022-07-24T09:18:36;2.40;;;1.58;;
42134;SDS011;28312;43.460;11.810;2022-07-24T09:22:42;2.50;;;1.52;;
42134;SDS011;28312;43.460;11.810;2022-07-24T09:26:51;3.03;;;1.47;;
42134;SDS011;28312;43.460;11.810;2022-07-24T09:31:01;1.90;;;1.20;;
42134;SDS011;28312;43.460;11.810;2022-07-24T09:35:06;2.47;;;1.73;;
42134;SDS011;28312;43.460;11.810;2022-07-24T09:39:10;2.25;;;1.48;;
42134;SDS011;28312;43.460;11.810;2022-07-24T09:43:24;1.88;;;1.45;;
42134;SDS011;28312;43.460;11.810;2022-07-24T09:47:37;2.72;;;1.50;;
42134;SDS011;28312;43.460;11.810;2022-07-24T09:51:41;2.37;;;1.57;;
42134;SDS011;28312;43.460;11.810;2022-07-24T09:56:03;2.50;;;1.83;;
42134;SDS011;28312;43.460;11.810;2022-07-24T10:00:09;4.03;;;1.40;;
42134;SDS011;28312;43.460;11.810;2022-07-24T10:04:13;3.85;;;1.50;;
42134;SDS011;28312;43.460;11.810;2022-07-24T10:08:19;2.38;;;1.48;;
42134;SDS011;28312;43.460;11.810;2022-07-24T10:12:24;2.15;;;1.23;;
42134;SDS011;28312;43.460;11.810;2022-07-24T10:16:30;3.15;;;1.42;;
42134;SDS011;28312;43.460;11.810;2022-07-24T10:20:39;2.15;;;1.27;;
42134;SDS011;28312;43.460;11.810;2022-07-24T10:28:57;2.72;;;1.20;;
42134;SDS011;28312;43.460;11.810;2022-07-24T10:33:22;2.50;;;1.58;;
42134;SDS011;28312;43.460;11.810;2022-07-24T10:37:54;2.90;;;1.30;;
42134;SDS011;28312;43.460;11.810;2022-07-24T10:42:08;3.08;;;1.80;;
42134;SDS011;28312;43.460;11.810;2022-07-24T10:46:12;2.57;;;1.87;;
42134;SDS011;28312;43.460;11.810;2022-07-24T10:50:16;2.97;;;2.03;;
42134;SDS011;28312;43.460;11.810;2022-07-24T10:54:22;2.25;;;1.52;;
42134;SDS011;28312;43.460;11.810;2022-07-24T10:58:30;3.42;;;1.73;;
42134;SDS011;28312;43.460;11.810;2022-07-24T11:03:18;2.00;;;1.38;;
42134;SDS011;28312;43.460;11.810;2022-07-24T11:07:23;2.28;;;1.70;;
42134;SDS011;28312;43.460;11.810;2022-07-24T11:11:27;4.15;;;1.85;;
42134;SDS011;28312;43.460;11.810;2022-07-24T11:15:31;2.50;;;1.50;;
42134;SDS011;28312;43.460;11.810;2022-07-24T11:19:58;2.60;;;1.55;;
42134;SDS011;28312;43.460;11.810;2022-07-24T11:24:17;8.57;;;2.80;;
42134;SDS011;28312;43.460;11.810;2022-07-24T11:28:25;2.13;;;1.40;;
42134;SDS011;28312;43.460;11.810;2022-07-24T11:32:28;3.42;;;1.90;;
42134;SDS011;28312;43.460;11.810;2022-07-24T11:36:32;2.78;;;1.70;;
42134;SDS011;28312;43.460;11.810;2022-07-24T11:40:38;2.60;;;1.77;;
42134;SDS011;28312;43.460;11.810;2022-07-24T11:44:46;2.25;;;1.48;;
42134;SDS011;28312;43.460;11.810;2022-07-24T11:49:04;1.63;;;1.15;;
42134;SDS011;28312;43.460;11.810;2022-07-24T11:53:08;3.13;;;1.25;;
42134;SDS011;28312;43.460;11.810;2022-07-24T11:57:16;2.13;;;1.47;;
42134;SDS011;28312;43.460;11.810;2022-07-24T12:01:41;5.80;;;1.92;;
42134;SDS011;28312;43.460;11.810;2022-07-24T12:05:45;3.27;;;2.03;;
42134;SDS011;28312;43.460;11.810;2022-07-24T12:09:53;2.65;;;1.73;;
42134;SDS011;28312;43.460;11.810;2022-07-24T12:14:01;2.40;;;1.58;;
42134;SDS011;28312;43.460;11.810;2022-07-24T12:18:08;2.00;;;1.50;;
42134;SDS011;28312;43.460;11.810;2022-07-24T12:22:12;3.35;;;1.73;;
42134;SDS011;28312;43.460;11.810;2022-07-24T12:26:15;2.13;;;1.40;;
42134;SDS011;28312;43.460;11.810;2022-07-24T12:30:31;1.77;;;1.15;;
42134;SDS011;28312;43.460;11.810;2022-07-24T12:34:41;3.17;;;1.60;;
42134;SDS011;28312;43.460;11.810;2022-07-24T12:39:05;2.13;;;1.38;;
42134;SDS011;28312;43.460;11.810;2022-07-24T12:47:15;2.00;;;1.63;;
42134;SDS011;28312;43.460;11.810;2022-07-24T12:51:20;1.63;;;1.00;;
42134;SDS011;28312;43.460;11.810;2022-07-24T12:55:23;2.87;;;1.40;;
42134;SDS011;28312;43.460;11.810;2022-07-24T12:59:34;2.10;;;0.85;;
42134;SDS011;28312;43.460;11.810;2022-07-24T13:03:39;2.17;;;1.40;;
42134;SDS011;28312;43.460;11.810;2022-07-24T13:07:51;4.10;;;1.60;;
42134;SDS011;28312;43.460;11.810;2022-07-24T13:11:55;2.65;;;1.30;;
42134;SDS011;28312;43.460;11.810;2022-07-24T13:15:59;2.35;;;1.45;;
42134;SDS011;28312;43.460;11.810;2022-07-24T13:20:03;2.65;;;1.40;;
42134;SDS011;28312;43.460;11.810;2022-07-24T13:24:10;2.05;;;1.50;;
42134;SDS011;28312;43.460;11.810;2022-07-24T13:28:15;2.15;;;1.30;;
42134;SDS011;28312;43.460;11.810;2022-07-24T13:32:19;2.10;;;1.10;;
42134;SDS011;28312;43.460;11.810;2022-07-24T13:36:24;1.65;;;0.93;;
42134;SDS011;28312;43.460;11.810;2022-07-24T13:40:29;2.05;;;1.20;;
42134;SDS011;28312;43.460;11.810;2022-07-24T13:44:33;1.60;;;0.98;;
42134;SDS011;28312;43.460;11.810;2022-07-24T13:48:37;2.45;;;1.65;;
42134;SDS011;28312;43.460;11.810;2022-07-24T13:52:41;1.67;;;1.13;;
42134;SDS011;28312;43.460;11.810;2022-07-24T13:56:45;3.35;;;1.30;;
42134;SDS011;28312;43.460;11.810;2022-07-24T14:00:49;1.92;;;1.10;;
42134;SDS011;28312;43.460;11.810;2022-07-24T14:04:58;2.45;;;1.13;;
42134;SDS011;28312;43.460;11.810;2022-07-24T14:09:03;1.98;;;1.08;;
42134;SDS011;28312;43.460;11.810;2022-07-24T14:17:10;1.40;;;1.05;;
42134;SDS011;28312;43.460;11.810;2022-07-24T14:21:13;1.73;;;0.90;;
42134;SDS011;28312;43.460;11.810;2022-07-24T14:25:17;2.80;;;1.70;;
42134;SDS011;28312;43.460;11.810;2022-07-24T14:29:21;2.72;;;1.65;;
42134;SDS011;28312;43.460;11.810;2022-07-24T14:33:25;1.75;;;1.15;;
42134;SDS011;28312;43.460;11.810;2022-07-24T14:37:28;2.80;;;1.38;;
42134;SDS011;28312;43.460;11.810;2022-07-24T14:41:32;2.13;;;1.40;;
42134;SDS011;28312;43.460;11.810;2022-07-24T14:45:36;2.88;;;2.00;;
42134;SDS011;28312;43.460;11.810;2022-07-24T14:49:40;2.08;;;1.25;;
42134;SDS011;28312;43.460;11.810;2022-07-24T14:53:44;1.92;;;1.10;;
42134;SDS011;28312;43.460;11.810;2022-07-24T14:57:48;2.50;;;1.10;;
42134;SDS011;28312;43.460;11.810;2022-07-24T15:01:51;2.90;;;1.30;;
42134;SDS011;28312;43.460;11.810;2022-07-24T15:05:55;2.33;;;1.57;;
42134;SDS011;28312;43.460;11.810;2022-07-24T15:09:59;1.80;;;1.20;;
42134;SDS011;28312;43.460;11.810;2022-07-24T15:14:04;1.70;;;0.90;;
42134;SDS011;28312;43.460;11.810;2022-07-24T15:18:08;2.13;;;1.10;;
42134;SDS011;28312;43.460;11.810;2022-07-24T15:22:12;1.57;;;1.17;;
42134;SDS011;28312;43.460;11.810;2022-07-24T15:26:16;1.87;;;1.30;;
42134;SDS011;28312;43.460;11.810;2022-07-24T15:30:20;4.77;;;1.20;;
42134;SDS011;28312;43.460;11.810;2022-07-24T15:34:32;2.28;;;1.15;;
42134;SDS011;28312;43.460;11.810;2022-07-24T15:38:38;1.88;;;1.20;;
42134;SDS011;28312;43.460;11.810;2022-07-24T15:42:45;2.72;;;1.25;;
42134;SDS011;28312;43.460;11.810;2022-07-24T15:46:50;2.63;;;1.30;;
42134;SDS011;28312;43.460;11.810;2022-07-24T15:50:55;3.15;;;1.25;;
42134;SDS011;28312;43.460;11.810;2022-07-24T15:54:59;2.30;;;1.15;;
42134;SDS011;28312;43.460;11.810;2022-07-24T15:59:03;1.80;;;1.10;;
42134;SDS011;28312;43.460;11.810;2022-07-24T16:03:07;3.35;;;1.23;;
42134;SDS011;28312;43.460;11.810;2022-07-24T16:07:11;2.45;;;1.35;;
42134;SDS011;28312;43.460;11.810;2022-07-24T16:11:21;2.75;;;1.30;;
42134;SDS011;28312;43.460;11.810;2022-07-24T16:15:26;2.67;;;1.50;;
42134;SDS011;28312;43.460;11.810;2022-07-24T16:19:31;3.70;;;1.90;;
42134;SDS011;28312;43.460;11.810;2022-07-24T16:23:35;1.95;;;1.40;;
42134;SDS011;28312;43.460;11.810;2022-07-24T16:27:39;2.60;;;1.53;;
42134;SDS011;28312;43.460;11.810;2022-07-24T16:31:43;1.90;;;1.10;;
42134;SDS011;28312;43.460;11.810;2022-07-24T16:35:47;3.03;;;2.13;;
42134;SDS011;28312;43.460;11.810;2022-07-24T16:39:51;2.58;;;1.50;;
42134;SDS011;28312;43.460;11.810;2022-07-24T16:43:55;2.50;;;1.70;;
42134;SDS011;28312;43.460;11.810;2022-07-24T16:52:03;3.35;;;1.45;;
42134;SDS011;28312;43.460;11.810;2022-07-24T16:56:07;2.28;;;1.27;;
42134;SDS011;28312;43.460;11.810;2022-07-24T17:04:16;2.92;;;1.30;;
42134;SDS011;28312;43.460;11.810;2022-07-24T17:08:21;2.88;;;1.73;;
42134;SDS011;28312;43.460;11.810;2022-07-24T17:12:25;2.38;;;1.60;;
42134;SDS011;28312;43.460;11.810;2022-07-24T17:20:35;2.53;;;1.55;;
42134;SDS011;28312;43.460;11.810;2022-07-24T17:24:41;1.88;;;1.40;;
42134;SDS011;28312;43.460;11.810;2022-07-24T17:28:45;2.15;;;1.42;;
42134;SDS011;28312;43.460;11.810;2022-07-24T17:32:49;2.88;;;1.95;;
42134;SDS011;28312;43.460;11.810;2022-07-24T17:36:53;1.70;;;1.20;;
42134;SDS011;28312;43.460;11.810;2022-07-24T17:40:57;2.28;;;1.75;;
42134;SDS011;28312;43.460;11.810;2022-07-24T17:45:01;3.25;;;1.50;;
42134;SDS011;28312;43.460;11.810;2022-07-24T17:49:05;1.90;;;1.37;;
42134;SDS011;28312;43.460;11.810;2022-07-24T17:53:09;2.55;;;1.85;;
42134;SDS011;28312;43.460;11.810;2022-07-24T17:57:13;3.30;;;1.75;;
42134;SDS011;28312;43.460;11.810;2022-07-24T18:01:17;6.03;;;2.60;;
42134;SDS011;28312;43.460;11.810;2022-07-24T18:05:27;2.97;;;1.30;;
42134;SDS011;28312;43.460;11.810;2022-07-24T18:09:31;5.85;;;1.73;;
42134;SDS011;28312;43.460;11.810;2022-07-24T18:13:37;2.45;;;1.60;;
42134;SDS011;28312;43.460;11.810;2022-07-24T18:17:41;2.42;;;1.50;;
42134;SDS011;28312;43.460;11.810;2022-07-24T18:21:45;2.88;;;1.52;;
42134;SDS011;28312;43.460;11.810;2022-07-24T18:25:49;4.68;;;2.10;;
42134;SDS011;28312;43.460;11.810;2022-07-24T18:29:53;4.35;;;1.75;;
42134;SDS011;28312;43.460;11.810;2022-07-24T18:33:57;3.60;;;2.00;;
42134;SDS011;28312;43.460;11.810;2022-07-24T18:38:01;3.35;;;1.85;;
42134;SDS011;28312;43.460;11.810;2022-07-24T18:42:05;2.70;;;1.83;;
42134;SDS011;28312;43.460;11.810;2022-07-24T18:46:09;3.77;;;2.43;;
42134;SDS011;28312;43.460;11.810;2022-07-24T18:50:14;2.67;;;2.10;;
42134;SDS011;28312;43.460;11.810;2022-07-24T18:54:17;2.28;;;1.75;;
42134;SDS011;28312;43.460;11.810;2022-07-24T18:58:21;2.40;;;1.88;;
42134;SDS011;28312;43.460;11.810;2022-07-24T19:02:25;3.55;;;1.85;;
42134;SDS011;28312;43.460;11.810;2022-07-24T19:06:30;2.53;;;1.80;;
42134;SDS011;28312;43.460;11.810;2022-07-24T19:10:34;3.25;;;2.17;;
42134;SDS011;28312;43.460;11.810;2022-07-24T19:14:39;2.55;;;1.83;;
42134;SDS011;28312;43.460;11.810;2022-07-24T19:18:43;3.85;;;2.42;;
42134;SDS011;28312;43.460;11.810;2022-07-24T19:22:46;2.72;;;1.85;;
42134;SDS011;28312;43.460;11.810;2022-07-24T19:26:50;2.63;;;1.92;;
42134;SDS011;28312;43.460;11.810;2022-07-24T19:30:54;2.80;;;1.98;;
42134;SDS011;28312;43.460;11.810;2022-07-24T19:34:58;4.57;;;1.75;;
42134;SDS011;28312;43.460;11.810;2022-07-24T19:39:02;2.53;;;1.83;;
42134;SDS011;28312;43.460;11.810;2022-07-24T19:43:05;2.60;;;1.80;;
42134;SDS011;28312;43.460;11.810;2022-07-24T19:47:09;2.67;;;2.20;;
42134;SDS011;28312;43.460;11.810;2022-07-24T19:51:12;3.60;;;1.98;;
42134;SDS011;28312;43.460;11.810;2022-07-24T19:55:36;2.30;;;1.90;;
42134;SDS011;28312;43.460;11.810;2022-07-24T19:59:40;2.40;;;1.50;;
42134;SDS011;28312;43.460;11.810;2022-07-24T20:03:47;2.03;;;1.45;;
42134;SDS011;28312;43.460;11.810;2022-07-24T20:07:51;2.47;;;1.60;;
42134;SDS011;28312;43.460;11.810;2022-07-24T20:11:55;2.33;;;1.60;;
42134;SDS011;28312;43.460;11.810;2022-07-24T20:15:59;2.17;;;1.48;;
42134;SDS011;28312;43.460;11.810;2022-07-24T20:20:04;2.63;;;1.73;;
42134;SDS011;28312;43.460;11.810;2022-07-24T20:24:08;2.33;;;1.40;;
42134;SDS011;28312;43.460;11.810;2022-07-24T20:28:13;3.05;;;1.67;;
42134;SDS011;28312;43.460;11.810;2022-07-24T20:32:16;2.42;;;1.67;;
42134;SDS011;28312;43.460;11.810;2022-07-24T20:36:20;2.42;;;1.50;;
42134;SDS011;28312;43.460;11.810;2022-07-24T20:40:24;2.25;;;1.45;;
42134;SDS011;28312;43.460;11.810;2022-07-24T20:44:35;1.90;;;1.40;;
42134;SDS011;28312;43.460;11.810;2022-07-24T20:48:39;1.80;;;1.25;;
42134;SDS011;28312;43.460;11.810;2022-07-24T20:52:44;2.70;;;1.80;;
42134;SDS011;28312;43.460;11.810;2022-07-24T20:56:53;3.58;;;1.58;;
42134;SDS011;28312;43.460;11.810;2022-07-24T21:00:57;2.75;;;2.00;;
42134;SDS011;28312;43.460;11.810;2022-07-24T21:05:03;8.25;;;1.63;;
42134;SDS011;28312;43.460;11.810;2022-07-24T21:09:09;2.13;;;1.23;;
42134;SDS011;28312;43.460;11.810;2022-07-24T21:13:12;3.28;;;1.50;;
42134;SDS011;28312;43.460;11.810;2022-07-24T21:17:16;2.13;;;1.50;;
42134;SDS011;28312;43.460;11.810;2022-07-24T21:21:21;3.53;;;1.73;;
42134;SDS011;28312;43.460;11.810;2022-07-24T21:25:25;2.17;;;1.48;;
42134;SDS011;28312;43.460;11.810;2022-07-24T21:29:30;2.95;;;1.55;;
42134;SDS011;28312;43.460;11.810;2022-07-24T21:33:33;1.63;;;1.10;;
42134;SDS011;28312;43.460;11.810;2022-07-24T21:37:37;2.60;;;1.83;;
42134;SDS011;28312;43.460;11.810;2022-07-24T21:41:41;2.35;;;1.45;;
42134;SDS011;28312;43.460;11.810;2022-07-24T21:45:45;2.30;;;1.42;;
42134;SDS011;28312;43.460;11.810;2022-07-24T21:49:48;2.40;;;1.55;;
42134;SDS011;28312;43.460;11.810;2022-07-24T21:53:52;2.15;;;1.40;;
42134;SDS011;28312;43.460;11.810;2022-07-24T21:57:57;2.42;;;1.70;;
42134;SDS011;28312;43.460;11.810;2022-07-24T22:02:02;2.83;;;1.95;;
42134;SDS011;28312;43.460;11.810;2022-07-24T22:06:06;2.33;;;1.73;;
42134;SDS011;28312;43.460;11.810;2022-07-24T22:10:10;2.20;;;1.40;;
42134;SDS011;28312;43.460;11.810;2022-07-24T22:14:14;2.20;;;1.60;;
42134;SDS011;28312;43.460;11.810;2022-07-24T22:18:19;2.80;;;1.70;;
42134;SDS011;28312;43.460;11.810;2022-07-24T22:22:23;1.80;;;1.30;;
42134;SDS011;28312;43.460;11.810;2022-07-24T22:26:26;2.90;;;1.80;;
42134;SDS011;28312;43.460;11.810;2022-07-24T22:30:31;2.45;;;1.50;;
42134;SDS011;28312;43.460;11.810;2022-07-24T22:34:35;2.63;;;1.40;;
42134;SDS011;28312;43.460;11.810;2022-07-24T22:38:39;2.53;;;1.40;;
42134;SDS011;28312;43.460;11.810;2022-07-24T22:42:44;4.38;;;2.25;;
42134;SDS011;28312;43.460;11.810;2022-07-24T22:46:48;2.13;;;1.48;;
42134;SDS011;28312;43.460;11.810;2022-07-24T22:50:53;2.28;;;1.45;;
42134;SDS011;28312;43.460;11.810;2022-07-24T22:54:57;2.88;;;1.40;;
42134;SDS011;28312;43.460;11.810;2022-07-24T22:59:01;1.92;;;1.40;;
42134;SDS011;28312;43.460;11.810;2022-07-24T23:03:07;4.15;;;1.70;;
42134;SDS011;28312;43.460;11.810;2022-07-24T23:07:12;2.42;;;1.65;;
42134;SDS011;28312;43.460;11.810;2022-07-24T23:11:15;2.28;;;1.40;;
42134;SDS011;28312;43.460;11.810;2022-07-24T23:15:19;2.40;;;1.65;;
42134;SDS011;28312;43.460;11.810;2022-07-24T23:19:23;2.33;;;1.45;;
42134;SDS011;28312;43.460;11.810;2022-07-24T23:23:26;2.28;;;1.38;;
42134;SDS011;28312;43.460;11.810;2022-07-24T23:27:30;4.20;;;1.65;;
42134;SDS011;28312;43.460;11.810;2022-07-24T23:31:37;2.80;;;1.70;;
42134;SDS011;28312;43.460;11.810;2022-07-24T23:35:40;2.30;;;1.63;;
42134;SDS011;28312;43.460;11.810;2022-07-24T23:39:44;2.13;;;1.70;;
42134;SDS011;28312;43.460;11.810;2022-07-24T23:43:48;3.20;;;1.90;;
42134;SDS011;28312;43.460;11.810;2022-07-24T23:47:52;2.30;;;1.55;;
42134;SDS011;28312;43.460;11.810;2022-07-24T23:51:56;2.40;;;1.38;;
42134;SDS011;28312;43.460;11.810;2022-07-24T23:56:00;2.20;;;1.40;;
